createdAt,value
2019-05-16T00:02:01.474Z,9.40
2019-05-16T00:06:11.933Z,9.30
2019-05-16T00:10:22.301Z,9.30
2019-05-16T00:14:32.751Z,9.30
2019-05-16T00:18:43.154Z,9.20
2019-05-16T00:22:53.449Z,9.20
2019-05-16T00:27:03.784Z,9.20
2019-05-16T00:31:14.113Z,9.20
2019-05-16T00:35:24.545Z,9.10
2019-05-16T00:39:34.879Z,9.10
2019-05-16T00:43:45.288Z,9.10
2019-05-16T00:47:55.616Z,9.10
2019-05-16T00:52:07.763Z,9.00
2019-05-16T00:56:18.824Z,9.00
2019-05-16T01:00:39.185Z,9.00
2019-05-16T01:04:50.442Z,9.00
2019-05-16T01:09:00.840Z,9.00
2019-05-16T01:13:11.160Z,8.90
2019-05-16T01:17:21.849Z,8.90
2019-05-16T01:21:32.149Z,8.90
2019-05-16T01:25:42.581Z,8.80
2019-05-16T01:29:52.853Z,8.80
2019-05-16T01:34:03.145Z,8.70
2019-05-16T01:38:13.557Z,8.70
2019-05-16T01:42:23.951Z,8.60
2019-05-16T01:46:35.898Z,8.60
2019-05-16T01:50:48.162Z,8.70
2019-05-16T01:54:58.715Z,8.60
2019-05-16T01:59:09.306Z,8.60
2019-05-16T02:03:19.732Z,8.60
2019-05-16T02:07:30.079Z,8.60
2019-05-16T02:11:40.475Z,8.60
2019-05-16T02:15:51.798Z,8.60
2019-05-16T02:20:02.095Z,8.60
2019-05-16T02:24:12.634Z,8.50
2019-05-16T02:28:27.513Z,8.50
2019-05-16T02:32:35.698Z,8.40
2019-05-16T02:36:46.114Z,8.30
2019-05-16T02:40:56.671Z,8.20
2019-05-16T02:45:10.960Z,8.10
2019-05-16T02:49:21.663Z,8.00
2019-05-16T02:53:32.114Z,8.00
2019-05-16T02:57:42.545Z,7.90
2019-05-16T03:01:53.013Z,7.80
2019-05-16T03:06:03.769Z,7.70
2019-05-16T03:10:14.481Z,7.80
2019-05-16T03:14:25.437Z,7.70
2019-05-16T03:18:36.734Z,7.70
2019-05-16T03:22:52.035Z,7.60
2019-05-16T03:27:02.215Z,7.50
2019-05-16T03:31:15.058Z,7.50
2019-05-16T03:35:25.451Z,7.40
2019-05-16T03:39:36.043Z,7.30
2019-05-16T03:43:50.487Z,7.30
2019-05-16T03:48:02.692Z,7.30
2019-05-16T03:52:11.595Z,7.40
2019-05-16T03:56:22.210Z,7.30
2019-05-16T04:00:52.603Z,7.20
2019-05-16T04:05:05.339Z,7.10
2019-05-16T04:09:15.703Z,7.10
2019-05-16T04:13:26.023Z,7.10
2019-05-16T04:17:36.495Z,7.10
2019-05-16T04:21:46.950Z,7.10
2019-05-16T04:26:00.459Z,7.10
2019-05-16T04:30:11.751Z,7.10
2019-05-16T04:34:21.794Z,7.10
2019-05-16T04:38:40.943Z,7.10
2019-05-16T04:42:46.166Z,7.10
2019-05-16T04:46:56.577Z,7.00
2019-05-16T04:51:06.977Z,6.90
2019-05-16T04:55:20.780Z,6.80
2019-05-16T04:59:31.135Z,6.70
2019-05-16T05:03:58.481Z,6.70
2019-05-16T05:07:53.842Z,6.70
2019-05-16T05:12:04.961Z,6.60
2019-05-16T05:16:15.569Z,6.60
2019-05-16T05:20:25.875Z,6.60
2019-05-16T05:24:36.217Z,6.60
2019-05-16T05:28:46.576Z,6.70
2019-05-16T05:32:56.928Z,6.70
2019-05-16T05:37:07.658Z,6.70
2019-05-16T05:41:19.876Z,6.80
2019-05-16T05:45:30.637Z,6.80
2019-05-16T05:49:41.065Z,6.80
2019-05-16T05:53:51.559Z,7.00
2019-05-16T05:58:02.040Z,7.00
2019-05-16T06:02:12.410Z,7.00
2019-05-16T06:06:22.719Z,7.10
2019-05-16T06:10:33.059Z,7.10
2019-05-16T06:14:43.514Z,7.10
2019-05-16T06:18:56.678Z,7.10
2019-05-16T06:23:05.880Z,7.20
2019-05-16T06:27:16.290Z,7.30
2019-05-16T06:31:26.763Z,7.40
2019-05-16T06:35:40.091Z,7.40
2019-05-16T06:39:50.233Z,7.40
2019-05-16T06:44:00.674Z,7.50
2019-05-16T06:48:11.113Z,7.60
2019-05-16T06:52:21.455Z,7.60
2019-05-16T06:56:32.145Z,7.60
2019-05-16T07:00:45.754Z,7.60
2019-05-16T07:04:56.767Z,7.70
2019-05-16T07:09:10.296Z,7.70
2019-05-16T07:13:19.769Z,7.70
2019-05-16T07:17:30.661Z,7.80
2019-05-16T07:21:41.198Z,7.70
2019-05-16T07:25:52.629Z,7.70
2019-05-16T07:30:03.898Z,7.70
2019-05-16T07:34:14.735Z,7.80
2019-05-16T07:38:25.072Z,7.80
2019-05-16T07:42:36.180Z,7.80
2019-05-16T07:46:46.675Z,7.70
2019-05-16T07:50:57.118Z,7.70
2019-05-16T07:55:10.501Z,7.80
2019-05-16T07:59:20.459Z,8.10
2019-05-16T08:03:30.897Z,8.10
2019-05-16T08:07:41.839Z,8.20
2019-05-16T08:11:52.469Z,8.20
2019-05-16T08:16:03.198Z,8.20
2019-05-16T08:20:14.198Z,8.30
2019-05-16T08:24:24.532Z,8.30
2019-05-16T08:28:34.872Z,8.40
2019-05-16T08:32:45.410Z,8.40
2019-05-16T08:36:55.892Z,8.40
2019-05-16T08:41:14.351Z,8.50
2019-05-16T08:45:21.977Z,8.50
2019-05-16T08:49:32.444Z,8.50
2019-05-16T08:53:43.662Z,8.60
2019-05-16T08:57:54.186Z,8.70
2019-05-16T09:02:04.743Z,8.60
2019-05-16T09:06:15.176Z,8.60
2019-05-16T09:14:39.149Z,8.70
2019-05-16T09:18:51.038Z,8.90
2019-05-16T09:23:01.651Z,8.90
2019-05-16T09:27:13.174Z,9.10
2019-05-16T09:31:23.968Z,9.30
2019-05-16T09:35:36.832Z,9.40
2019-05-16T09:39:48.104Z,9.50
2019-05-16T09:43:59.230Z,9.50
2019-05-16T09:48:09.861Z,9.40
2019-05-16T09:52:21.581Z,9.40
2019-05-16T09:56:31.938Z,9.50
2019-05-16T10:00:47.081Z,9.60
2019-05-16T10:04:57.968Z,9.70
2019-05-16T10:09:08.680Z,9.60
2019-05-16T10:13:19.057Z,9.50
2019-05-16T10:17:29.454Z,9.50
2019-05-16T10:21:39.882Z,9.50
2019-05-16T10:25:50.194Z,9.60
2019-05-16T10:30:01.545Z,9.60
2019-05-16T10:34:13.822Z,9.60
2019-05-16T10:38:28.524Z,9.50
2019-05-16T10:42:38.173Z,9.50
2019-05-16T10:46:48.693Z,9.60
2019-05-16T10:50:59.014Z,9.60
2019-05-16T10:55:09.771Z,9.50
2019-05-16T10:59:55.902Z,9.50
2019-05-16T11:03:32.377Z,9.40
2019-05-16T11:07:48.557Z,9.40
2019-05-16T11:11:57.983Z,9.40
2019-05-16T11:16:09.480Z,9.50
2019-05-16T11:20:20.707Z,9.50
2019-05-16T11:24:31.095Z,9.50
2019-05-16T11:28:42.290Z,9.40
2019-05-16T11:32:52.764Z,9.40
2019-05-16T11:37:03.280Z,9.50
2019-05-16T11:41:13.608Z,9.50
2019-05-16T11:45:24.035Z,9.60
2019-05-16T11:49:36.739Z,9.70
2019-05-16T11:53:47.671Z,9.70
2019-05-16T11:57:58.261Z,9.80
2019-05-16T12:02:08.662Z,9.90
2019-05-16T12:06:20.823Z,10.20
2019-05-16T12:10:31.228Z,10.40
2019-05-16T12:14:41.575Z,10.30
2019-05-16T12:18:51.915Z,10.20
2019-05-16T12:23:02.326Z,10.30
2019-05-16T12:27:12.678Z,10.50
2019-05-16T12:31:23.545Z,10.50
2019-05-16T12:35:36.643Z,10.40
2019-05-16T12:39:47.026Z,10.40
2019-05-16T12:43:58.094Z,10.40
2019-05-16T12:48:08.599Z,10.40
2019-05-16T12:52:18.941Z,10.40
2019-05-16T12:56:29.956Z,10.40
2019-05-16T13:00:44.079Z,10.30
2019-05-16T13:04:54.118Z,10.40
2019-05-16T13:09:06.982Z,10.40
2019-05-16T13:13:17.879Z,10.30
2019-05-16T13:17:28.391Z,10.30
2019-05-16T13:21:38.774Z,10.30
2019-05-16T13:25:49.317Z,10.30
2019-05-16T13:29:59.760Z,10.30
2019-05-16T13:34:10.117Z,10.40
2019-05-16T13:38:20.595Z,10.50
2019-05-16T13:42:31.045Z,10.50
2019-05-16T13:46:41.483Z,10.50
2019-05-16T13:50:51.798Z,10.60
2019-05-16T13:55:02.100Z,10.60
2019-05-16T13:59:13.374Z,10.40
2019-05-16T14:03:23.912Z,10.30
2019-05-16T14:07:37.071Z,10.30
2019-05-16T14:11:46.577Z,10.30
2019-05-16T14:15:56.952Z,10.40
2019-05-16T14:20:14.520Z,10.50
2019-05-16T14:24:20.341Z,10.50
2019-05-16T14:28:30.722Z,10.40
2019-05-16T14:32:43.696Z,10.40
2019-05-16T14:36:57.700Z,10.40
2019-05-16T14:41:08.139Z,10.30
2019-05-16T14:45:19.365Z,10.40
2019-05-16T14:49:30.010Z,10.50
2019-05-16T14:53:40.578Z,10.60
2019-05-16T14:57:51.018Z,10.70
2019-05-16T15:02:01.517Z,10.80
2019-05-16T15:06:11.968Z,10.70
2019-05-16T15:10:22.292Z,10.60
2019-05-16T15:14:32.631Z,10.60
2019-05-16T15:18:43.042Z,10.40
2019-05-16T15:22:53.452Z,10.30
2019-05-16T15:27:04.162Z,10.30
2019-05-16T15:31:16.606Z,10.20
2019-05-16T15:35:30.456Z,10.20
2019-05-16T15:39:41.418Z,10.30
2019-05-16T15:43:51.769Z,10.40
2019-05-16T15:48:02.195Z,10.50
2019-05-16T15:52:12.798Z,10.60
2019-05-16T15:56:23.099Z,10.50
2019-05-16T16:00:42.240Z,10.50
2019-05-16T16:04:53.433Z,10.30
2019-05-16T16:09:06.912Z,10.30
2019-05-16T16:13:19.752Z,10.30
2019-05-16T16:17:29.520Z,10.40
2019-05-16T16:21:39.940Z,10.40
2019-05-16T16:25:51.491Z,10.40
2019-05-16T16:30:02.175Z,10.40
2019-05-16T16:34:12.789Z,10.30
2019-05-16T16:38:23.137Z,10.30
2019-05-16T16:42:37.390Z,10.30
2019-05-16T16:46:46.917Z,10.30
2019-05-16T16:50:57.505Z,10.10
2019-05-16T16:55:08.873Z,9.90
2019-05-16T16:59:20.018Z,9.80
2019-05-16T17:03:30.320Z,9.80
2019-05-16T17:07:40.674Z,9.70
2019-05-16T17:11:51.093Z,9.70
2019-05-16T17:16:02.217Z,9.70
2019-05-16T17:20:14.390Z,9.60
2019-05-16T17:24:27.388Z,9.50
2019-05-16T17:28:38.002Z,9.40
2019-05-16T17:32:48.523Z,9.40
2019-05-16T17:36:58.847Z,9.30
2019-05-16T17:41:09.048Z,9.30
2019-05-16T17:45:19.998Z,9.40
2019-05-16T17:49:31.197Z,9.40
2019-05-16T17:53:41.420Z,9.30
2019-05-16T17:57:51.795Z,9.40
2019-05-16T18:02:02.759Z,9.50
2019-05-16T18:06:13.195Z,9.60
2019-05-16T18:10:23.589Z,9.60
2019-05-16T18:14:33.943Z,9.50
2019-05-16T18:18:46.748Z,9.60
2019-05-16T18:22:58.525Z,9.60
2019-05-16T18:27:08.851Z,9.50
2019-05-16T18:31:19.622Z,9.50
2019-05-16T18:35:30.706Z,9.40
2019-05-16T18:39:41.112Z,9.40
2019-05-16T18:43:53.540Z,9.40
2019-05-16T18:48:07.336Z,9.40
2019-05-16T18:52:17.732Z,9.40
2019-05-16T18:56:28.034Z,9.40
2019-05-16T19:00:42.052Z,9.50
2019-05-16T19:04:53.237Z,9.40
2019-05-16T19:09:07.111Z,9.40
2019-05-16T19:13:17.562Z,9.40
2019-05-16T19:17:28.220Z,9.40
2019-05-16T19:21:38.653Z,9.40
2019-05-16T19:25:48.993Z,9.30
2019-05-16T19:29:59.353Z,9.10
2019-05-16T19:34:09.787Z,9.10
2019-05-16T19:38:20.213Z,9.00
2019-05-16T19:42:30.476Z,8.90
2019-05-16T19:46:40.833Z,8.80
2019-05-16T19:50:51.220Z,8.80
2019-05-16T19:55:01.730Z,8.70
2019-05-16T19:59:12.877Z,8.70
2019-05-16T20:03:27.223Z,8.70
2019-05-16T20:07:38.289Z,8.70
2019-05-16T20:11:48.633Z,8.70
2019-05-16T20:15:59.200Z,8.60
2019-05-16T20:20:10.844Z,8.60
2019-05-16T20:24:21.192Z,8.60
2019-05-16T20:28:32.028Z,8.50
2019-05-16T20:32:42.558Z,8.50
2019-05-16T20:36:52.932Z,8.50
2019-05-16T20:41:03.297Z,8.40
2019-05-16T20:45:13.731Z,8.40
2019-05-16T20:49:24.186Z,8.30
2019-05-16T20:53:34.641Z,8.20
2019-05-16T20:57:46.383Z,8.10
2019-05-16T21:01:57.477Z,8.00
2019-05-16T21:06:08.965Z,8.00
2019-05-16T21:10:19.442Z,8.00
2019-05-16T21:14:29.794Z,7.90
2019-05-16T21:18:40.153Z,8.10
2019-05-16T21:22:50.439Z,8.00
2019-05-16T21:27:00.797Z,8.00
2019-05-16T21:31:11.089Z,8.00
2019-05-16T21:35:26.822Z,7.90
2019-05-16T21:39:36.969Z,7.80
2019-05-16T21:43:48.398Z,7.80
2019-05-16T21:47:58.998Z,7.80
2019-05-16T21:52:09.526Z,7.70
2019-05-16T21:56:19.941Z,7.50
2019-05-16T22:00:37.470Z,7.30
2019-05-16T22:04:48.277Z,7.30
2019-05-16T22:08:59.129Z,7.30
2019-05-16T22:13:09.525Z,7.30
2019-05-16T22:17:20.098Z,7.40
2019-05-16T22:21:30.460Z,7.50
2019-05-16T22:25:40.832Z,7.60
2019-05-16T22:29:51.328Z,7.70
2019-05-16T22:34:03.759Z,7.70
2019-05-16T22:38:14.094Z,7.80
2019-05-16T22:42:26.627Z,7.80
2019-05-16T22:46:37.189Z,7.70
2019-05-16T22:50:48.605Z,7.80
2019-05-16T22:54:58.951Z,7.80
2019-05-16T22:59:09.385Z,7.80
2019-05-16T23:03:21.352Z,7.80
2019-05-16T23:07:31.728Z,7.90
2019-05-16T23:11:42.377Z,8.00
2019-05-16T23:15:52.881Z,8.00
2019-05-16T23:20:06.363Z,7.90
2019-05-16T23:24:17.362Z,7.90
2019-05-16T23:28:27.902Z,7.90
2019-05-16T23:32:38.313Z,7.90
2019-05-16T23:36:48.730Z,7.80
2019-05-16T23:40:59.266Z,7.80
2019-05-16T23:45:09.999Z,7.70
2019-05-16T23:49:20.355Z,7.60
2019-05-16T23:53:30.764Z,7.60
2019-05-16T23:57:41.182Z,7.60
